sensor_id;sensor_type;location;lat;lon;timestamp;P1;durP1;ratioP1;P2;durP2;ratioP2
4837;SDS011;2433;48.768;9.154;2024-01-27T00:01:40;1.37;;;0.60;;
4837;SDS011;2433;48.768;9.154;2024-01-27T00:04:05;0.87;;;0.87;;
4837;SDS011;2433;48.768;9.154;2024-01-27T00:06:31;2.70;;;0.93;;
4837;SDS011;2433;48.768;9.154;2024-01-27T00:08:57;0.80;;;0.70;;
4837;SDS011;2433;48.768;9.154;2024-01-27T00:11:22;3.90;;;0.73;;
4837;SDS011;2433;48.768;9.154;2024-01-27T00:13:51;1.73;;;0.68;;
4837;SDS011;2433;48.768;9.154;2024-01-27T00:16:17;1.13;;;0.90;;
4837;SDS011;2433;48.768;9.154;2024-01-27T00:18:43;1.00;;;0.77;;
4837;SDS011;2433;48.768;9.154;2024-01-27T00:21:08;1.33;;;0.93;;
4837;SDS011;2433;48.768;9.154;2024-01-27T00:23:34;1.10;;;1.00;;
4837;SDS011;2433;48.768;9.154;2024-01-27T00:26:00;0.50;;;0.40;;
4837;SDS011;2433;48.768;9.154;2024-01-27T00:28:26;1.40;;;1.30;;
4837;SDS011;2433;48.768;9.154;2024-01-27T00:30:51;1.13;;;1.03;;
4837;SDS011;2433;48.768;9.154;2024-01-27T00:33:17;4.65;;;0.90;;
4837;SDS011;2433;48.768;9.154;2024-01-27T00:35:43;0.83;;;0.70;;
4837;SDS011;2433;48.768;9.154;2024-01-27T00:38:08;0.80;;;0.63;;
4837;SDS011;2433;48.768;9.154;2024-01-27T00:40:34;1.80;;;1.20;;
4837;SDS011;2433;48.768;9.154;2024-01-27T00:43:01;3.80;;;1.07;;
4837;SDS011;2433;48.768;9.154;2024-01-27T00:45:27;1.40;;;0.60;;
4837;SDS011;2433;48.768;9.154;2024-01-27T00:47:55;0.80;;;0.80;;
4837;SDS011;2433;48.768;9.154;2024-01-27T00:50:23;1.88;;;1.20;;
4837;SDS011;2433;48.768;9.154;2024-01-27T00:52:49;3.67;;;0.80;;
4837;SDS011;2433;48.768;9.154;2024-01-27T00:55:14;1.00;;;0.90;;
4837;SDS011;2433;48.768;9.154;2024-01-27T00:57:40;0.90;;;0.57;;
4837;SDS011;2433;48.768;9.154;2024-01-27T01:00:06;1.85;;;0.65;;
4837;SDS011;2433;48.768;9.154;2024-01-27T01:02:33;1.63;;;1.05;;
4837;SDS011;2433;48.768;9.154;2024-01-27T01:04:59;2.90;;;1.73;;
4837;SDS011;2433;48.768;9.154;2024-01-27T01:07:25;1.00;;;0.70;;
4837;SDS011;2433;48.768;9.154;2024-01-27T01:09:50;1.67;;;1.00;;
4837;SDS011;2433;48.768;9.154;2024-01-27T01:12:16;1.10;;;0.80;;
4837;SDS011;2433;48.768;9.154;2024-01-27T01:14:42;1.00;;;0.90;;
4837;SDS011;2433;48.768;9.154;2024-01-27T01:17:08;2.75;;;1.13;;
4837;SDS011;2433;48.768;9.154;2024-01-27T01:19:33;1.90;;;1.00;;
4837;SDS011;2433;48.768;9.154;2024-01-27T01:21:59;1.87;;;0.70;;
4837;SDS011;2433;48.768;9.154;2024-01-27T01:24:25;1.40;;;1.07;;
4837;SDS011;2433;48.768;9.154;2024-01-27T01:26:50;2.50;;;1.13;;
4837;SDS011;2433;48.768;9.154;2024-01-27T01:29:16;8.93;;;2.07;;
4837;SDS011;2433;48.768;9.154;2024-01-27T01:31:42;2.73;;;1.30;;
4837;SDS011;2433;48.768;9.154;2024-01-27T01:34:08;1.52;;;0.70;;
4837;SDS011;2433;48.768;9.154;2024-01-27T01:36:33;2.37;;;1.00;;
4837;SDS011;2433;48.768;9.154;2024-01-27T01:38:59;1.23;;;1.13;;
4837;SDS011;2433;48.768;9.154;2024-01-27T01:41:24;6.60;;;0.90;;
4837;SDS011;2433;48.768;9.154;2024-01-27T01:43:50;1.60;;;1.20;;
4837;SDS011;2433;48.768;9.154;2024-01-27T01:46:16;2.00;;;0.97;;
4837;SDS011;2433;48.768;9.154;2024-01-27T01:48:42;0.80;;;0.63;;
4837;SDS011;2433;48.768;9.154;2024-01-27T01:51:08;1.87;;;1.30;;
4837;SDS011;2433;48.768;9.154;2024-01-27T01:53:34;1.38;;;1.08;;
4837;SDS011;2433;48.768;9.154;2024-01-27T01:55:59;1.80;;;1.00;;
4837;SDS011;2433;48.768;9.154;2024-01-27T01:58:26;2.65;;;1.00;;
4837;SDS011;2433;48.768;9.154;2024-01-27T02:01:01;1.17;;;1.17;;
4837;SDS011;2433;48.768;9.154;2024-01-27T02:03:27;1.02;;;0.93;;
4837;SDS011;2433;48.768;9.154;2024-01-27T02:05:53;1.60;;;1.10;;
4837;SDS011;2433;48.768;9.154;2024-01-27T02:08:19;3.22;;;1.35;;
4837;SDS011;2433;48.768;9.154;2024-01-27T02:10:45;1.90;;;0.90;;
4837;SDS011;2433;48.768;9.154;2024-01-27T02:13:15;1.42;;;0.80;;
4837;SDS011;2433;48.768;9.154;2024-01-27T02:15:46;2.65;;;0.90;;
4837;SDS011;2433;48.768;9.154;2024-01-27T02:18:13;1.27;;;0.93;;
4837;SDS011;2433;48.768;9.154;2024-01-27T02:20:38;3.83;;;1.30;;
4837;SDS011;2433;48.768;9.154;2024-01-27T02:23:04;3.80;;;1.50;;
4837;SDS011;2433;48.768;9.154;2024-01-27T02:25:30;2.30;;;0.80;;
4837;SDS011;2433;48.768;9.154;2024-01-27T02:27:56;1.85;;;0.82;;
4837;SDS011;2433;48.768;9.154;2024-01-27T02:30:22;1.27;;;0.90;;
4837;SDS011;2433;48.768;9.154;2024-01-27T02:32:48;1.73;;;0.83;;
4837;SDS011;2433;48.768;9.154;2024-01-27T02:35:14;2.20;;;0.97;;
4837;SDS011;2433;48.768;9.154;2024-01-27T02:37:42;1.00;;;0.70;;
4837;SDS011;2433;48.768;9.154;2024-01-27T02:40:08;3.47;;;1.17;;
4837;SDS011;2433;48.768;9.154;2024-01-27T02:42:37;1.55;;;0.80;;
4837;SDS011;2433;48.768;9.154;2024-01-27T02:45:03;3.53;;;1.00;;
4837;SDS011;2433;48.768;9.154;2024-01-27T02:47:29;2.67;;;1.75;;
4837;SDS011;2433;48.768;9.154;2024-01-27T02:49:55;2.00;;;1.00;;
4837;SDS011;2433;48.768;9.154;2024-01-27T02:52:21;2.43;;;1.30;;
4837;SDS011;2433;48.768;9.154;2024-01-27T02:54:47;1.73;;;1.10;;
4837;SDS011;2433;48.768;9.154;2024-01-27T02:57:13;1.33;;;1.23;;
4837;SDS011;2433;48.768;9.154;2024-01-27T02:59:40;1.30;;;1.20;;
4837;SDS011;2433;48.768;9.154;2024-01-27T03:02:06;1.10;;;1.00;;
4837;SDS011;2433;48.768;9.154;2024-01-27T03:04:31;2.27;;;1.00;;
4837;SDS011;2433;48.768;9.154;2024-01-27T03:06:57;1.20;;;1.00;;
4837;SDS011;2433;48.768;9.154;2024-01-27T03:09:22;1.60;;;1.07;;
4837;SDS011;2433;48.768;9.154;2024-01-27T03:11:48;2.73;;;0.80;;
4837;SDS011;2433;48.768;9.154;2024-01-27T03:14:14;0.93;;;0.83;;
4837;SDS011;2433;48.768;9.154;2024-01-27T03:16:39;4.40;;;3.63;;
4837;SDS011;2433;48.768;9.154;2024-01-27T03:19:05;1.53;;;0.83;;
4837;SDS011;2433;48.768;9.154;2024-01-27T03:21:32;1.52;;;0.90;;
4837;SDS011;2433;48.768;9.154;2024-01-27T03:23:57;1.20;;;0.93;;
4837;SDS011;2433;48.768;9.154;2024-01-27T03:26:23;2.70;;;1.00;;
4837;SDS011;2433;48.768;9.154;2024-01-27T03:28:49;2.93;;;0.90;;
4837;SDS011;2433;48.768;9.154;2024-01-27T03:31:14;1.30;;;1.20;;
4837;SDS011;2433;48.768;9.154;2024-01-27T03:33:40;1.30;;;1.13;;
4837;SDS011;2433;48.768;9.154;2024-01-27T03:36:12;0.80;;;0.80;;
4837;SDS011;2433;48.768;9.154;2024-01-27T03:38:38;2.60;;;0.95;;
4837;SDS011;2433;48.768;9.154;2024-01-27T03:41:05;1.10;;;1.00;;
4837;SDS011;2433;48.768;9.154;2024-01-27T03:43:31;4.17;;;1.20;;
4837;SDS011;2433;48.768;9.154;2024-01-27T03:45:57;1.03;;;0.93;;
4837;SDS011;2433;48.768;9.154;2024-01-27T03:48:23;3.72;;;1.30;;
4837;SDS011;2433;48.768;9.154;2024-01-27T03:50:48;1.30;;;1.20;;
4837;SDS011;2433;48.768;9.154;2024-01-27T03:53:14;1.33;;;1.23;;
4837;SDS011;2433;48.768;9.154;2024-01-27T03:55:39;1.30;;;1.10;;
4837;SDS011;2433;48.768;9.154;2024-01-27T03:58:05;1.73;;;0.93;;
4837;SDS011;2433;48.768;9.154;2024-01-27T04:00:31;3.00;;;0.80;;
4837;SDS011;2433;48.768;9.154;2024-01-27T04:02:58;1.50;;;0.90;;
4837;SDS011;2433;48.768;9.154;2024-01-27T04:05:25;3.72;;;1.50;;
4837;SDS011;2433;48.768;9.154;2024-01-27T04:07:51;2.65;;;1.35;;
4837;SDS011;2433;48.768;9.154;2024-01-27T04:10:17;0.83;;;0.83;;
4837;SDS011;2433;48.768;9.154;2024-01-27T04:12:43;0.85;;;0.82;;
4837;SDS011;2433;48.768;9.154;2024-01-27T04:15:12;1.77;;;1.30;;
4837;SDS011;2433;48.768;9.154;2024-01-27T04:17:39;2.67;;;1.00;;
4837;SDS011;2433;48.768;9.154;2024-01-27T04:20:05;4.35;;;0.88;;
4837;SDS011;2433;48.768;9.154;2024-01-27T04:22:32;1.30;;;1.20;;
4837;SDS011;2433;48.768;9.154;2024-01-27T04:24:58;4.35;;;1.88;;
4837;SDS011;2433;48.768;9.154;2024-01-27T04:27:24;2.58;;;1.60;;
4837;SDS011;2433;48.768;9.154;2024-01-27T04:29:50;1.93;;;1.20;;
4837;SDS011;2433;48.768;9.154;2024-01-27T04:32:16;3.00;;;1.08;;
4837;SDS011;2433;48.768;9.154;2024-01-27T04:34:41;1.27;;;0.80;;
4837;SDS011;2433;48.768;9.154;2024-01-27T04:37:07;2.43;;;1.20;;
4837;SDS011;2433;48.768;9.154;2024-01-27T04:39:32;1.57;;;0.90;;
4837;SDS011;2433;48.768;9.154;2024-01-27T04:41:58;4.70;;;1.10;;
4837;SDS011;2433;48.768;9.154;2024-01-27T04:44:23;1.47;;;0.90;;
4837;SDS011;2433;48.768;9.154;2024-01-27T04:46:49;4.80;;;1.23;;
4837;SDS011;2433;48.768;9.154;2024-01-27T04:49:15;1.53;;;1.10;;
4837;SDS011;2433;48.768;9.154;2024-01-27T04:51:40;1.27;;;0.90;;
4837;SDS011;2433;48.768;9.154;2024-01-27T04:54:06;1.00;;;0.90;;
4837;SDS011;2433;48.768;9.154;2024-01-27T04:56:33;1.60;;;1.00;;
4837;SDS011;2433;48.768;9.154;2024-01-27T04:58:59;4.07;;;0.93;;
4837;SDS011;2433;48.768;9.154;2024-01-27T05:01:24;2.43;;;0.97;;
4837;SDS011;2433;48.768;9.154;2024-01-27T05:03:50;1.13;;;1.03;;
4837;SDS011;2433;48.768;9.154;2024-01-27T05:06:15;1.10;;;0.90;;
4837;SDS011;2433;48.768;9.154;2024-01-27T05:08:42;1.30;;;0.80;;
4837;SDS011;2433;48.768;9.154;2024-01-27T05:11:09;6.03;;;1.60;;
4837;SDS011;2433;48.768;9.154;2024-01-27T05:13:35;1.23;;;1.13;;
4837;SDS011;2433;48.768;9.154;2024-01-27T05:16:00;3.10;;;1.70;;
4837;SDS011;2433;48.768;9.154;2024-01-27T05:18:26;1.13;;;1.03;;
4837;SDS011;2433;48.768;9.154;2024-01-27T05:20:52;1.70;;;1.60;;
4837;SDS011;2433;48.768;9.154;2024-01-27T05:23:17;2.30;;;1.80;;
4837;SDS011;2433;48.768;9.154;2024-01-27T05:25:43;1.23;;;1.00;;
4837;SDS011;2433;48.768;9.154;2024-01-27T05:28:08;0.93;;;0.87;;
4837;SDS011;2433;48.768;9.154;2024-01-27T05:30:34;6.30;;;1.40;;
4837;SDS011;2433;48.768;9.154;2024-01-27T05:32:59;1.33;;;0.77;;
4837;SDS011;2433;48.768;9.154;2024-01-27T05:35:25;4.50;;;1.40;;
4837;SDS011;2433;48.768;9.154;2024-01-27T05:37:50;2.20;;;2.00;;
4837;SDS011;2433;48.768;9.154;2024-01-27T05:40:17;1.88;;;1.67;;
4837;SDS011;2433;48.768;9.154;2024-01-27T05:42:42;1.73;;;1.20;;
4837;SDS011;2433;48.768;9.154;2024-01-27T05:45:10;2.83;;;1.10;;
4837;SDS011;2433;48.768;9.154;2024-01-27T05:47:35;2.80;;;1.20;;
4837;SDS011;2433;48.768;9.154;2024-01-27T05:50:01;0.97;;;0.70;;
4837;SDS011;2433;48.768;9.154;2024-01-27T05:52:27;0.95;;;0.80;;
4837;SDS011;2433;48.768;9.154;2024-01-27T05:54:53;1.70;;;0.90;;
4837;SDS011;2433;48.768;9.154;2024-01-27T05:57:19;2.15;;;1.10;;
4837;SDS011;2433;48.768;9.154;2024-01-27T05:59:45;5.30;;;1.60;;
4837;SDS011;2433;48.768;9.154;2024-01-27T06:02:11;8.30;;;1.50;;
4837;SDS011;2433;48.768;9.154;2024-01-27T06:04:36;1.80;;;1.40;;
4837;SDS011;2433;48.768;9.154;2024-01-27T06:07:02;2.50;;;1.70;;
4837;SDS011;2433;48.768;9.154;2024-01-27T06:09:27;3.53;;;0.90;;
4837;SDS011;2433;48.768;9.154;2024-01-27T06:11:53;3.23;;;1.20;;
4837;SDS011;2433;48.768;9.154;2024-01-27T06:14:18;1.30;;;0.80;;
4837;SDS011;2433;48.768;9.154;2024-01-27T06:16:44;1.40;;;1.00;;
4837;SDS011;2433;48.768;9.154;2024-01-27T06:19:10;5.43;;;1.50;;
4837;SDS011;2433;48.768;9.154;2024-01-27T06:21:35;2.23;;;1.00;;
4837;SDS011;2433;48.768;9.154;2024-01-27T06:24:01;1.00;;;0.70;;
4837;SDS011;2433;48.768;9.154;2024-01-27T06:26:27;5.67;;;1.77;;
4837;SDS011;2433;48.768;9.154;2024-01-27T06:28:52;2.80;;;1.13;;
4837;SDS011;2433;48.768;9.154;2024-01-27T06:31:18;2.00;;;1.80;;
4837;SDS011;2433;48.768;9.154;2024-01-27T06:33:43;1.97;;;1.40;;
4837;SDS011;2433;48.768;9.154;2024-01-27T06:36:09;3.50;;;1.57;;
4837;SDS011;2433;48.768;9.154;2024-01-27T06:38:36;2.93;;;1.57;;
4837;SDS011;2433;48.768;9.154;2024-01-27T06:41:02;0.93;;;0.80;;
4837;SDS011;2433;48.768;9.154;2024-01-27T06:43:29;1.17;;;1.08;;
4837;SDS011;2433;48.768;9.154;2024-01-27T06:45:54;0.80;;;0.80;;
4837;SDS011;2433;48.768;9.154;2024-01-27T06:48:22;1.10;;;1.05;;
4837;SDS011;2433;48.768;9.154;2024-01-27T06:50:50;3.08;;;1.92;;
4837;SDS011;2433;48.768;9.154;2024-01-27T06:53:17;2.83;;;1.03;;
4837;SDS011;2433;48.768;9.154;2024-01-27T06:55:44;1.42;;;1.30;;
4837;SDS011;2433;48.768;9.154;2024-01-27T06:58:09;0.97;;;0.63;;
4837;SDS011;2433;48.768;9.154;2024-01-27T07:00:35;2.93;;;0.97;;
4837;SDS011;2433;48.768;9.154;2024-01-27T07:03:01;2.40;;;1.30;;
4837;SDS011;2433;48.768;9.154;2024-01-27T07:05:27;1.65;;;1.10;;
4837;SDS011;2433;48.768;9.154;2024-01-27T07:07:53;4.50;;;1.10;;
4837;SDS011;2433;48.768;9.154;2024-01-27T07:10:19;1.00;;;0.83;;
4837;SDS011;2433;48.768;9.154;2024-01-27T07:12:44;0.70;;;0.57;;
4837;SDS011;2433;48.768;9.154;2024-01-27T07:15:10;2.53;;;1.10;;
4837;SDS011;2433;48.768;9.154;2024-01-27T07:17:35;4.00;;;1.20;;
4837;SDS011;2433;48.768;9.154;2024-01-27T07:20:01;1.33;;;0.90;;
4837;SDS011;2433;48.768;9.154;2024-01-27T07:22:26;2.50;;;1.30;;
4837;SDS011;2433;48.768;9.154;2024-01-27T07:24:52;4.30;;;1.50;;
4837;SDS011;2433;48.768;9.154;2024-01-27T07:27:17;2.23;;;1.00;;
4837;SDS011;2433;48.768;9.154;2024-01-27T07:29:45;1.20;;;1.10;;
4837;SDS011;2433;48.768;9.154;2024-01-27T07:32:11;2.60;;;1.07;;
4837;SDS011;2433;48.768;9.154;2024-01-27T07:34:42;1.13;;;0.93;;
4837;SDS011;2433;48.768;9.154;2024-01-27T07:37:08;2.90;;;1.70;;
4837;SDS011;2433;48.768;9.154;2024-01-27T07:39:34;2.07;;;1.60;;
4837;SDS011;2433;48.768;9.154;2024-01-27T07:42:00;1.30;;;1.20;;
4837;SDS011;2433;48.768;9.154;2024-01-27T07:44:25;2.80;;;1.83;;
4837;SDS011;2433;48.768;9.154;2024-01-27T07:46:51;1.60;;;1.13;;
4837;SDS011;2433;48.768;9.154;2024-01-27T07:49:17;0.93;;;0.90;;
4837;SDS011;2433;48.768;9.154;2024-01-27T07:51:43;1.92;;;1.10;;
4837;SDS011;2433;48.768;9.154;2024-01-27T07:54:09;3.53;;;1.20;;
4837;SDS011;2433;48.768;9.154;2024-01-27T07:56:34;7.30;;;3.03;;
4837;SDS011;2433;48.768;9.154;2024-01-27T07:59:00;2.40;;;1.30;;
4837;SDS011;2433;48.768;9.154;2024-01-27T08:01:26;3.90;;;1.90;;
4837;SDS011;2433;48.768;9.154;2024-01-27T08:03:51;3.33;;;1.93;;
4837;SDS011;2433;48.768;9.154;2024-01-27T08:06:17;1.97;;;1.53;;
4837;SDS011;2433;48.768;9.154;2024-01-27T08:08:47;3.53;;;1.92;;
4837;SDS011;2433;48.768;9.154;2024-01-27T08:11:14;3.00;;;1.90;;
4837;SDS011;2433;48.768;9.154;2024-01-27T08:13:40;1.75;;;1.50;;
4837;SDS011;2433;48.768;9.154;2024-01-27T08:16:06;5.75;;;2.40;;
4837;SDS011;2433;48.768;9.154;2024-01-27T08:18:35;2.30;;;2.10;;
4837;SDS011;2433;48.768;9.154;2024-01-27T08:21:01;2.90;;;1.90;;
4837;SDS011;2433;48.768;9.154;2024-01-27T08:23:28;4.47;;;3.08;;
4837;SDS011;2433;48.768;9.154;2024-01-27T08:25:53;4.03;;;3.73;;
4837;SDS011;2433;48.768;9.154;2024-01-27T08:28:19;2.53;;;2.33;;
4837;SDS011;2433;48.768;9.154;2024-01-27T08:30:44;2.80;;;2.33;;
4837;SDS011;2433;48.768;9.154;2024-01-27T08:33:10;7.93;;;2.97;;
4837;SDS011;2433;48.768;9.154;2024-01-27T08:35:35;4.67;;;2.83;;
4837;SDS011;2433;48.768;9.154;2024-01-27T08:38:01;2.80;;;2.10;;
4837;SDS011;2433;48.768;9.154;2024-01-27T08:40:28;7.95;;;3.00;;
4837;SDS011;2433;48.768;9.154;2024-01-27T08:42:54;4.40;;;2.70;;
4837;SDS011;2433;48.768;9.154;2024-01-27T08:45:20;7.43;;;2.60;;
4837;SDS011;2433;48.768;9.154;2024-01-27T08:47:46;7.13;;;3.20;;
4837;SDS011;2433;48.768;9.154;2024-01-27T08:50:11;9.70;;;3.10;;
4837;SDS011;2433;48.768;9.154;2024-01-27T08:52:37;2.03;;;1.60;;
4837;SDS011;2433;48.768;9.154;2024-01-27T08:55:02;2.90;;;1.97;;
4837;SDS011;2433;48.768;9.154;2024-01-27T08:57:28;2.17;;;1.90;;
4837;SDS011;2433;48.768;9.154;2024-01-27T08:59:54;1.70;;;1.60;;
4837;SDS011;2433;48.768;9.154;2024-01-27T09:02:20;1.70;;;1.40;;
4837;SDS011;2433;48.768;9.154;2024-01-27T09:04:45;4.67;;;3.10;;
4837;SDS011;2433;48.768;9.154;2024-01-27T09:07:11;3.90;;;2.30;;
4837;SDS011;2433;48.768;9.154;2024-01-27T09:09:37;3.00;;;2.40;;
4837;SDS011;2433;48.768;9.154;2024-01-27T09:12:04;2.28;;;1.70;;
4837;SDS011;2433;48.768;9.154;2024-01-27T09:14:30;4.53;;;2.27;;
4837;SDS011;2433;48.768;9.154;2024-01-27T09:16:55;2.90;;;1.70;;
4837;SDS011;2433;48.768;9.154;2024-01-27T09:19:21;9.20;;;3.13;;
4837;SDS011;2433;48.768;9.154;2024-01-27T09:21:47;3.22;;;1.90;;
4837;SDS011;2433;48.768;9.154;2024-01-27T09:24:13;3.72;;;2.35;;
4837;SDS011;2433;48.768;9.154;2024-01-27T09:26:39;6.63;;;3.40;;
4837;SDS011;2433;48.768;9.154;2024-01-27T09:29:04;2.80;;;2.00;;
4837;SDS011;2433;48.768;9.154;2024-01-27T09:31:30;7.80;;;3.00;;
4837;SDS011;2433;48.768;9.154;2024-01-27T09:33:55;3.70;;;2.53;;
4837;SDS011;2433;48.768;9.154;2024-01-27T09:36:21;4.60;;;3.30;;
4837;SDS011;2433;48.768;9.154;2024-01-27T09:38:47;6.13;;;3.07;;
4837;SDS011;2433;48.768;9.154;2024-01-27T09:41:13;4.33;;;3.20;;
4837;SDS011;2433;48.768;9.154;2024-01-27T09:43:41;5.95;;;4.70;;
4837;SDS011;2433;48.768;9.154;2024-01-27T09:46:10;4.38;;;3.90;;
4837;SDS011;2433;48.768;9.154;2024-01-27T09:48:36;8.98;;;4.85;;
4837;SDS011;2433;48.768;9.154;2024-01-27T09:51:03;5.33;;;3.47;;
4837;SDS011;2433;48.768;9.154;2024-01-27T09:53:30;7.18;;;2.78;;
4837;SDS011;2433;48.768;9.154;2024-01-27T09:55:57;3.63;;;2.67;;
4837;SDS011;2433;48.768;9.154;2024-01-27T09:58:24;4.25;;;2.80;;
4837;SDS011;2433;48.768;9.154;2024-01-27T10:00:53;7.15;;;3.17;;
4837;SDS011;2433;48.768;9.154;2024-01-27T10:03:22;6.90;;;3.25;;
4837;SDS011;2433;48.768;9.154;2024-01-27T10:05:49;2.28;;;2.17;;
4837;SDS011;2433;48.768;9.154;2024-01-27T10:08:16;5.78;;;3.03;;
4837;SDS011;2433;48.768;9.154;2024-01-27T10:10:42;7.50;;;3.30;;
4837;SDS011;2433;48.768;9.154;2024-01-27T10:13:07;6.00;;;3.30;;
4837;SDS011;2433;48.768;9.154;2024-01-27T10:15:35;5.55;;;2.67;;
4837;SDS011;2433;48.768;9.154;2024-01-27T10:18:07;3.03;;;2.73;;
4837;SDS011;2433;48.768;9.154;2024-01-27T10:20:33;4.57;;;2.50;;
4837;SDS011;2433;48.768;9.154;2024-01-27T10:22:59;5.20;;;2.67;;
4837;SDS011;2433;48.768;9.154;2024-01-27T10:25:39;4.38;;;3.03;;
4837;SDS011;2433;48.768;9.154;2024-01-27T10:28:08;8.80;;;1.95;;
4837;SDS011;2433;48.768;9.154;2024-01-27T10:30:34;3.22;;;2.65;;
4837;SDS011;2433;48.768;9.154;2024-01-27T10:33:00;3.07;;;2.27;;
4837;SDS011;2433;48.768;9.154;2024-01-27T10:35:25;4.87;;;2.50;;
4837;SDS011;2433;48.768;9.154;2024-01-27T10:37:52;2.83;;;1.40;;
4837;SDS011;2433;48.768;9.154;2024-01-27T10:40:18;5.20;;;1.55;;
4837;SDS011;2433;48.768;9.154;2024-01-27T10:42:44;1.83;;;1.73;;
4837;SDS011;2433;48.768;9.154;2024-01-27T10:45:11;2.30;;;1.97;;
4837;SDS011;2433;48.768;9.154;2024-01-27T10:47:38;2.58;;;1.92;;
4837;SDS011;2433;48.768;9.154;2024-01-27T10:50:04;3.75;;;2.42;;
4837;SDS011;2433;48.768;9.154;2024-01-27T10:52:34;2.00;;;1.80;;
4837;SDS011;2433;48.768;9.154;2024-01-27T10:55:03;3.97;;;2.00;;
4837;SDS011;2433;48.768;9.154;2024-01-27T10:57:32;9.27;;;2.17;;
4837;SDS011;2433;48.768;9.154;2024-01-27T11:00:00;4.27;;;1.20;;
4837;SDS011;2433;48.768;9.154;2024-01-27T11:02:31;1.90;;;1.70;;
4837;SDS011;2433;48.768;9.154;2024-01-27T11:04:58;2.97;;;2.00;;
4837;SDS011;2433;48.768;9.154;2024-01-27T11:07:32;3.20;;;2.17;;
4837;SDS011;2433;48.768;9.154;2024-01-27T11:09:58;4.10;;;2.17;;
4837;SDS011;2433;48.768;9.154;2024-01-27T11:12:24;1.80;;;1.70;;
4837;SDS011;2433;48.768;9.154;2024-01-27T11:14:50;5.03;;;1.97;;
4837;SDS011;2433;48.768;9.154;2024-01-27T11:17:17;3.37;;;2.13;;
4837;SDS011;2433;48.768;9.154;2024-01-27T11:19:46;3.10;;;1.77;;
4837;SDS011;2433;48.768;9.154;2024-01-27T11:22:25;5.30;;;2.60;;
4837;SDS011;2433;48.768;9.154;2024-01-27T11:24:52;3.13;;;2.70;;
4837;SDS011;2433;48.768;9.154;2024-01-27T11:27:36;2.80;;;2.00;;
4837;SDS011;2433;48.768;9.154;2024-01-27T11:30:02;3.43;;;1.90;;
4837;SDS011;2433;48.768;9.154;2024-01-27T11:32:28;6.63;;;3.00;;
4837;SDS011;2433;48.768;9.154;2024-01-27T11:34:54;3.50;;;2.40;;
4837;SDS011;2433;48.768;9.154;2024-01-27T11:37:20;3.80;;;1.90;;
4837;SDS011;2433;48.768;9.154;2024-01-27T11:39:50;4.37;;;2.10;;
4837;SDS011;2433;48.768;9.154;2024-01-27T11:42:17;5.00;;;3.10;;
4837;SDS011;2433;48.768;9.154;2024-01-27T11:44:43;3.90;;;2.60;;
4837;SDS011;2433;48.768;9.154;2024-01-27T11:47:15;5.27;;;2.73;;
4837;SDS011;2433;48.768;9.154;2024-01-27T11:49:51;5.00;;;2.70;;
4837;SDS011;2433;48.768;9.154;2024-01-27T11:52:20;4.77;;;2.53;;
4837;SDS011;2433;48.768;9.154;2024-01-27T11:54:53;4.10;;;3.50;;
4837;SDS011;2433;48.768;9.154;2024-01-27T11:57:25;2.60;;;2.40;;
4837;SDS011;2433;48.768;9.154;2024-01-27T11:59:51;2.57;;;2.10;;
4837;SDS011;2433;48.768;9.154;2024-01-27T12:02:17;4.00;;;3.70;;
4837;SDS011;2433;48.768;9.154;2024-01-27T12:04:44;5.77;;;2.37;;
4837;SDS011;2433;48.768;9.154;2024-01-27T12:07:09;1.97;;;1.87;;
4837;SDS011;2433;48.768;9.154;2024-01-27T12:09:35;3.70;;;1.70;;
4837;SDS011;2433;48.768;9.154;2024-01-27T12:12:02;4.17;;;2.90;;
4837;SDS011;2433;48.768;9.154;2024-01-27T12:14:41;2.87;;;2.27;;
4837;SDS011;2433;48.768;9.154;2024-01-27T12:17:09;4.90;;;2.03;;
4837;SDS011;2433;48.768;9.154;2024-01-27T12:19:36;4.10;;;2.40;;
4837;SDS011;2433;48.768;9.154;2024-01-27T12:22:02;1.93;;;1.40;;
4837;SDS011;2433;48.768;9.154;2024-01-27T12:24:28;2.30;;;1.37;;
4837;SDS011;2433;48.768;9.154;2024-01-27T12:26:55;2.73;;;2.13;;
4837;SDS011;2433;48.768;9.154;2024-01-27T12:29:22;6.10;;;2.10;;
4837;SDS011;2433;48.768;9.154;2024-01-27T12:31:47;4.20;;;1.87;;
4837;SDS011;2433;48.768;9.154;2024-01-27T12:34:13;2.87;;;2.00;;
4837;SDS011;2433;48.768;9.154;2024-01-27T12:36:42;3.63;;;1.93;;
4837;SDS011;2433;48.768;9.154;2024-01-27T12:39:08;2.00;;;1.70;;
4837;SDS011;2433;48.768;9.154;2024-01-27T12:41:35;5.47;;;2.20;;
4837;SDS011;2433;48.768;9.154;2024-01-27T12:44:01;4.40;;;2.03;;
4837;SDS011;2433;48.768;9.154;2024-01-27T12:46:27;2.77;;;2.27;;
4837;SDS011;2433;48.768;9.154;2024-01-27T12:48:53;5.27;;;2.50;;
4837;SDS011;2433;48.768;9.154;2024-01-27T12:51:18;2.80;;;1.50;;
4837;SDS011;2433;48.768;9.154;2024-01-27T12:53:44;4.97;;;2.57;;
4837;SDS011;2433;48.768;9.154;2024-01-27T12:56:10;3.30;;;2.57;;
4837;SDS011;2433;48.768;9.154;2024-01-27T12:58:37;3.07;;;2.37;;
4837;SDS011;2433;48.768;9.154;2024-01-27T13:01:03;5.07;;;2.67;;
4837;SDS011;2433;48.768;9.154;2024-01-27T13:03:30;2.27;;;2.07;;
4837;SDS011;2433;48.768;9.154;2024-01-27T13:05:56;3.93;;;2.07;;
4837;SDS011;2433;48.768;9.154;2024-01-27T13:08:21;3.70;;;2.27;;
4837;SDS011;2433;48.768;9.154;2024-01-27T13:10:47;3.50;;;2.23;;
4837;SDS011;2433;48.768;9.154;2024-01-27T13:13:14;3.10;;;1.90;;
4837;SDS011;2433;48.768;9.154;2024-01-27T13:15:40;2.03;;;1.87;;
4837;SDS011;2433;48.768;9.154;2024-01-27T13:18:06;4.67;;;2.20;;
4837;SDS011;2433;48.768;9.154;2024-01-27T13:20:31;3.37;;;2.20;;
4837;SDS011;2433;48.768;9.154;2024-01-27T13:22:58;2.40;;;1.70;;
4837;SDS011;2433;48.768;9.154;2024-01-27T13:25:23;2.77;;;2.00;;
4837;SDS011;2433;48.768;9.154;2024-01-27T13:27:49;2.77;;;2.30;;
4837;SDS011;2433;48.768;9.154;2024-01-27T13:30:15;1.93;;;1.60;;
4837;SDS011;2433;48.768;9.154;2024-01-27T13:32:42;2.33;;;1.27;;
4837;SDS011;2433;48.768;9.154;2024-01-27T13:35:08;7.30;;;2.50;;
4837;SDS011;2433;48.768;9.154;2024-01-27T13:37:33;3.33;;;1.40;;
4837;SDS011;2433;48.768;9.154;2024-01-27T13:39:59;1.37;;;1.27;;
4837;SDS011;2433;48.768;9.154;2024-01-27T13:42:25;2.30;;;1.30;;
4837;SDS011;2433;48.768;9.154;2024-01-27T13:44:51;3.57;;;1.40;;
4837;SDS011;2433;48.768;9.154;2024-01-27T13:47:17;1.97;;;1.63;;
4837;SDS011;2433;48.768;9.154;2024-01-27T13:49:43;1.57;;;1.37;;
4837;SDS011;2433;48.768;9.154;2024-01-27T13:52:08;3.13;;;1.90;;
4837;SDS011;2433;48.768;9.154;2024-01-27T13:54:34;2.30;;;1.60;;
4837;SDS011;2433;48.768;9.154;2024-01-27T13:57:00;1.23;;;1.07;;
4837;SDS011;2433;48.768;9.154;2024-01-27T13:59:27;1.47;;;1.00;;
4837;SDS011;2433;48.768;9.154;2024-01-27T14:01:53;1.00;;;0.90;;
4837;SDS011;2433;48.768;9.154;2024-01-27T14:04:19;1.83;;;0.97;;
4837;SDS011;2433;48.768;9.154;2024-01-27T14:06:45;4.67;;;1.60;;
4837;SDS011;2433;48.768;9.154;2024-01-27T14:09:11;1.93;;;1.60;;
4837;SDS011;2433;48.768;9.154;2024-01-27T14:11:38;1.50;;;0.90;;
4837;SDS011;2433;48.768;9.154;2024-01-27T14:14:04;9.40;;;1.70;;
4837;SDS011;2433;48.768;9.154;2024-01-27T14:16:29;1.50;;;0.97;;
4837;SDS011;2433;48.768;9.154;2024-01-27T14:18:55;1.47;;;1.37;;
4837;SDS011;2433;48.768;9.154;2024-01-27T14:21:21;3.10;;;1.80;;
4837;SDS011;2433;48.768;9.154;2024-01-27T14:23:47;3.57;;;1.57;;
4837;SDS011;2433;48.768;9.154;2024-01-27T14:26:14;4.03;;;1.73;;
4837;SDS011;2433;48.768;9.154;2024-01-27T14:28:40;3.00;;;1.83;;
4837;SDS011;2433;48.768;9.154;2024-01-27T14:31:06;3.63;;;2.03;;
4837;SDS011;2433;48.768;9.154;2024-01-27T14:33:32;1.63;;;1.40;;
4837;SDS011;2433;48.768;9.154;2024-01-27T14:35:58;1.50;;;1.30;;
4837;SDS011;2433;48.768;9.154;2024-01-27T14:38:24;1.27;;;1.17;;
4837;SDS011;2433;48.768;9.154;2024-01-27T14:40:49;5.90;;;2.30;;
4837;SDS011;2433;48.768;9.154;2024-01-27T14:43:15;3.03;;;1.13;;
4837;SDS011;2433;48.768;9.154;2024-01-27T14:45:43;1.13;;;1.10;;
4837;SDS011;2433;48.768;9.154;2024-01-27T14:48:10;3.70;;;1.80;;
4837;SDS011;2433;48.768;9.154;2024-01-27T14:50:35;1.80;;;1.47;;
4837;SDS011;2433;48.768;9.154;2024-01-27T14:53:01;1.10;;;1.00;;
4837;SDS011;2433;48.768;9.154;2024-01-27T14:55:31;2.80;;;1.60;;
4837;SDS011;2433;48.768;9.154;2024-01-27T14:57:58;6.60;;;2.00;;
4837;SDS011;2433;48.768;9.154;2024-01-27T15:00:24;4.17;;;1.77;;
4837;SDS011;2433;48.768;9.154;2024-01-27T15:02:49;4.67;;;2.53;;
4837;SDS011;2433;48.768;9.154;2024-01-27T15:05:15;2.50;;;2.10;;
4837;SDS011;2433;48.768;9.154;2024-01-27T15:07:41;3.40;;;2.40;;
4837;SDS011;2433;48.768;9.154;2024-01-27T15:10:06;2.93;;;2.00;;